FDX5349 ZGGG-VTBS
Flight info
| Callsign | FDX5349 |
|---|---|
| Flight time | N/A |
| Altitude | 39100 |
| Route | VIBOS9 VIBOS R473 ZUH/K0887S1220 R200 BIGRO G221 SAMAS A202 ASSAD/K0889F400 A202 VILAO/N0480F400 A202 RAMEI W42 PAKRI Y13 RUKSA EASTE1C |
| Aircraft | MD11/H-SDE1E2E3FGHIJ2J3J4J5M1RWXY/LB1D1 |
Departure
| Time | N/A |
|---|---|
| Airport | Guangzhou Baiyun International Airport (ZGGG) |
Arrival
| Time | 2026-04-30 18:18 |
|---|---|
| Airport | Suvarnabhumi Airport (VTBS) |
| Time | Latitude | Longitude | Altitude | Speed | Heading |
|---|---|---|---|---|---|
| 2026-04-30 17:39 | 15.70252 | 103.76833 | 39054 ft | 438 kts | 231° |
| 2026-04-30 17:42 | 15.49958 | 103.53167 | 39034 ft | 440 kts | 231° |
| 2026-04-30 17:43 | 15.39788 | 103.41350 | 39028 ft | 441 kts | 231° |
| 2026-04-30 17:44 | 15.27541 | 103.27125 | 39023 ft | 441 kts | 231° |
| 2026-04-30 17:47 | 15.09119 | 103.05780 | 39009 ft | 443 kts | 231° |
| 2026-04-30 17:48 | 14.99476 | 102.97837 | 39019 ft | 450 kts | 213° |
| 2026-04-30 17:48 | 14.91381 | 102.92918 | 39013 ft | 449 kts | 218° |
| 2026-04-30 17:49 | 14.84090 | 102.83014 | 39028 ft | 438 kts | 252° |
| 2026-04-30 17:50 | 14.80616 | 102.70947 | 39028 ft | 438 kts | 254° |
| 2026-04-30 17:52 | 14.75190 | 102.52889 | 38789 ft | 439 kts | 253° |
| 2026-04-30 17:53 | 14.70650 | 102.37971 | 36691 ft | 435 kts | 253° |
| 2026-04-30 17:54 | 14.66990 | 102.25965 | 34717 ft | 442 kts | 253° |
| 2026-04-30 17:55 | 14.63245 | 102.13715 | 32650 ft | 453 kts | 253° |
| 2026-04-30 17:56 | 14.59403 | 102.01167 | 30389 ft | 464 kts | 253° |
| 2026-04-30 17:57 | 14.56185 | 101.91662 | 28664 ft | 470 kts | 249° |
| 2026-04-30 17:58 | 14.52475 | 101.82376 | 26848 ft | 463 kts | 248° |
| 2026-04-30 17:59 | 14.47641 | 101.70226 | 24479 ft | 455 kts | 248° |
| 2026-04-30 18:00 | 14.43296 | 101.59250 | 22351 ft | 443 kts | 248° |
| 2026-04-30 18:00 | 14.39842 | 101.50538 | 20652 ft | 432 kts | 248° |
| 2026-04-30 18:01 | 14.37585 | 101.44858 | 19558 ft | 427 kts | 248° |
| 2026-04-30 18:02 | 14.34274 | 101.36535 | 18223 ft | 412 kts | 247° |
| 2026-04-30 18:02 | 14.30960 | 101.28981 | 17891 ft | 370 kts | 232° |
| 2026-04-30 18:03 | 14.25283 | 101.23670 | 17714 ft | 367 kts | 218° |
| 2026-04-30 18:04 | 14.19348 | 101.18720 | 16289 ft | 361 kts | 219° |
| 2026-04-30 18:05 | 14.11766 | 101.12215 | 14323 ft | 349 kts | 219° |
| 2026-04-30 18:06 | 14.04431 | 101.06852 | 13896 ft | 311 kts | 198° |
| 2026-04-30 18:07 | 13.96088 | 101.04532 | 13900 ft | 311 kts | 194° |
| 2026-04-30 18:08 | 13.89792 | 101.02824 | 13268 ft | 311 kts | 194° |
| 2026-04-30 18:09 | 13.82224 | 100.99288 | 11854 ft | 295 kts | 237° |
| 2026-04-30 18:10 | 13.82692 | 100.91601 | 10213 ft | 274 kts | 301° |
| 2026-04-30 18:11 | 13.89384 | 100.90150 | 8226 ft | 267 kts | 17° |
| 2026-04-30 18:11 | 13.94871 | 100.90061 | 6718 ft | 285 kts | 325° |
| 2026-04-30 18:12 | 13.96360 | 100.84683 | 5217 ft | 277 kts | 244° |
| 2026-04-30 18:13 | 13.93538 | 100.82341 | 4229 ft | 262 kts | 195° |
| 2026-04-30 18:13 | 13.89185 | 100.81427 | 3116 ft | 218 kts | 194° |
| 2026-04-30 18:14 | 13.86010 | 100.80574 | 2429 ft | 184 kts | 194° |
| 2026-04-30 18:15 | 13.82593 | 100.79666 | 2431 ft | 156 kts | 194° |
| 2026-04-30 18:15 | 13.79472 | 100.78836 | 2085 ft | 152 kts | 193° |
| 2026-04-30 18:16 | 13.77407 | 100.78287 | 1689 ft | 153 kts | 193° |
| 2026-04-30 18:16 | 13.75338 | 100.77739 | 1283 ft | 153 kts | 193° |
| 2026-04-30 18:17 | 13.74294 | 100.77462 | 1049 ft | 157 kts | 194° |
| 2026-04-30 18:17 | 13.73225 | 100.77181 | 879 ft | 160 kts | 194° |
| 2026-04-30 18:17 | 13.71088 | 100.76615 | 457 ft | 157 kts | 194° |
| 2026-04-30 18:18 | 13.70042 | 100.76333 | 232 ft | 152 kts | 195° |
| 2026-04-30 18:18 | 13.69005 | 100.76066 | 34 ft | 152 kts | 194° |
| 2026-04-30 18:18 | 13.68138 | 100.75831 | 20 ft | 101 kts | 194° |
| 2026-04-30 18:18 | 13.67666 | 100.75702 | 18 ft | 47 kts | 202° |
| 2026-04-30 18:19 | 13.67502 | 100.75592 | 21 ft | 14 kts | 220° |
| 2026-04-30 18:19 | 13.67456 | 100.75543 | 21 ft | 8 kts | 236° |
| 2026-04-30 18:19 | 13.67442 | 100.75521 | 20 ft | 0 kts | 244° |
| 2026-04-30 18:19 | 13.67441 | 100.75513 | 20 ft | 5 kts | 260° |
| 2026-04-30 18:20 | 13.67454 | 100.75488 | 20 ft | 3 kts | 315° |
| 2026-04-30 18:20 | 13.67498 | 100.75477 | 20 ft | 12 kts | 2° |
| 2026-04-30 18:20 | 13.67575 | 100.75494 | 20 ft | 11 kts | 13° |
| 2026-04-30 18:20 | 13.67650 | 100.75511 | 20 ft | 11 kts | 12° |
| 2026-04-30 18:21 | 13.67724 | 100.75528 | 20 ft | 10 kts | 14° |
| 2026-04-30 18:21 | 13.67791 | 100.75547 | 20 ft | 10 kts | 16° |
| 2026-04-30 18:21 | 13.67867 | 100.75570 | 20 ft | 12 kts | 16° |
| 2026-04-30 18:21 | 13.67953 | 100.75595 | 20 ft | 13 kts | 15° |
| 2026-04-30 18:22 | 13.68044 | 100.75618 | 20 ft | 14 kts | 13° |
| 2026-04-30 18:22 | 13.68320 | 100.75689 | 21 ft | 26 kts | 14° |
| 2026-04-30 18:22 | 13.68491 | 100.75734 | 21 ft | 25 kts | 14° |
| 2026-04-30 18:23 | 13.68654 | 100.75777 | 21 ft | 24 kts | 14° |
| 2026-04-30 18:23 | 13.68809 | 100.75818 | 21 ft | 23 kts | 14° |
| 2026-04-30 18:23 | 13.68957 | 100.75857 | 21 ft | 21 kts | 14° |
| 2026-04-30 18:23 | 13.69067 | 100.75883 | 23 ft | 5 kts | 5° |
| 2026-04-30 18:24 | 13.69108 | 100.75818 | 21 ft | 7 kts | 254° |
| 2026-04-30 18:24 | 13.69044 | 100.75779 | 21 ft | 12 kts | 197° |
| 2026-04-30 18:24 | 13.68965 | 100.75757 | 21 ft | 12 kts | 193° |
| 2026-04-30 18:25 | 13.68824 | 100.75721 | 22 ft | 29 kts | 194° |
| 2026-04-30 18:25 | 13.68497 | 100.75629 | 21 ft | 10 kts | 209° |
| 2026-04-30 18:25 | 13.68477 | 100.75598 | 21 ft | 7 kts | 255° |
| 2026-04-30 18:26 | 13.68523 | 100.75383 | 20 ft | 17 kts | 284° |
| 2026-04-30 18:26 | 13.68554 | 100.75262 | 20 ft | 18 kts | 284° |
| 2026-04-30 18:26 | 13.68585 | 100.75137 | 21 ft | 19 kts | 284° |
| 2026-04-30 18:27 | 13.68654 | 100.74867 | 21 ft | 20 kts | 285° |
| 2026-04-30 18:27 | 13.68692 | 100.74722 | 21 ft | 21 kts | 285° |
| 2026-04-30 18:28 | 13.68762 | 100.74432 | 21 ft | 22 kts | 284° |
| 2026-04-30 18:28 | 13.68799 | 100.74287 | 22 ft | 15 kts | 284° |
| 2026-04-30 18:28 | 13.68880 | 100.74221 | 21 ft | 14 kts | 7° |
| 2026-04-30 18:29 | 13.69012 | 100.74256 | 21 ft | 22 kts | 15° |
| 2026-04-30 18:29 | 13.69454 | 100.74369 | 21 ft | 22 kts | 14° |
| 2026-04-30 18:30 | 13.69707 | 100.74437 | 21 ft | 23 kts | 14° |
| 2026-04-30 18:30 | 13.69936 | 100.74502 | 22 ft | 2 kts | 34° |
| 2026-04-30 18:31 | 13.69940 | 100.74508 | 21 ft | 1 kts | 52° |
| 2026-04-30 18:31 | 13.69941 | 100.74522 | 21 ft | 3 kts | 87° |
| 2026-04-30 18:32 | 13.69933 | 100.74566 | 21 ft | 3 kts | 103° |
| 2026-04-30 18:32 | 13.69930 | 100.74579 | 21 ft | 0 kts | 104° |
| 2026-04-30 18:32 | 13.69929 | 100.74581 | 21 ft | 0 kts | 104° |